KPGV/PGV METAR and TAF weather

Enter ICAO airport designator
Station Type Date Time Source
KPGV METAR 2022/06/30 12:55 UTC NOAA

KPGV 301255Z AUTO 00000KT 10SM SCT013 26/22 A3025 RMK AO2


Station Type Date Time Source
KPGV Decoded METAR 2022/06/30 12:55 UTC NOAA

Pitt-Greenville Airport, NC, United States (KPGV) 35-38N 077-24W
Jun 30, 2022 - 08:55 AM EDT / 2022.06.30 1255 UTC
Wind: Calm:0
Visibility: 10 mile(s):0
Sky conditions: partly cloudy
Temperature: 78 F (26 C)
Dew Point: 71 F (22 C)
Relative Humidity: 78%
Pressure (altimeter): 30.25 in. Hg (1024 hPa)
ob: KPGV 301255Z AUTO 00000KT 10SM SCT013 26/22 A3025 RMK AO2
cycle: 13

Station Type Date Time Source
KPGV TAF 2022/06/30 12:24 UTC NOAA

TAF KPGV 301122Z 3012/0112 00000KT P6SM SCT150
FM301600 11004KT P6SM FEW250
FM010600 00000KT P6SM SCT250
AMD LTD TO CLD VIS AND WIND

Example: see airport list